sensor_id;sensor_type;location;lat;lon;timestamp;pressure;altitude;pressure_sealevel;temperature;humidity
58243;BME280;50118;53.232;8.252;2022-12-07T00:01:17;101264.72;;;2.21;100.00
58243;BME280;50118;53.232;8.252;2022-12-07T00:03:44;101263.16;;;2.17;100.00
58243;BME280;50118;53.232;8.252;2022-12-07T00:06:12;101275.38;;;2.18;100.00
58243;BME280;50118;53.232;8.252;2022-12-07T00:08:38;101272.13;;;2.13;100.00
58243;BME280;50118;53.232;8.252;2022-12-07T00:11:05;101277.38;;;2.13;100.00
58243;BME280;50118;53.232;8.252;2022-12-07T00:13:32;101280.94;;;2.12;100.00
58243;BME280;50118;53.232;8.252;2022-12-07T00:16:06;101268.63;;;2.13;100.00
58243;BME280;50118;53.232;8.252;2022-12-07T00:18:32;101280.50;;;2.21;100.00
58243;BME280;50118;53.232;8.252;2022-12-07T00:23:36;101284.09;;;2.19;100.00
58243;BME280;50118;53.232;8.252;2022-12-07T00:26:04;101289.13;;;2.23;100.00
58243;BME280;50118;53.232;8.252;2022-12-07T00:28:29;101286.66;;;2.20;100.00
58243;BME280;50118;53.232;8.252;2022-12-07T00:31:07;101261.97;;;2.23;100.00
58243;BME280;50118;53.232;8.252;2022-12-07T00:33:33;101261.13;;;2.22;100.00
58243;BME280;50118;53.232;8.252;2022-12-07T00:35:59;101260.22;;;2.23;100.00
58243;BME280;50118;53.232;8.252;2022-12-07T00:38:27;101252.94;;;2.29;100.00
58243;BME280;50118;53.232;8.252;2022-12-07T00:40:56;101253.41;;;2.19;100.00
58243;BME280;50118;53.232;8.252;2022-12-07T00:43:21;101249.25;;;2.15;100.00
58243;BME280;50118;53.232;8.252;2022-12-07T00:45:47;101252.78;;;2.14;100.00
58243;BME280;50118;53.232;8.252;2022-12-07T00:48:12;101258.22;;;2.11;100.00
58243;BME280;50118;53.232;8.252;2022-12-07T00:50:37;101256.81;;;2.04;100.00
58243;BME280;50118;53.232;8.252;2022-12-07T00:53:03;101262.31;;;1.99;100.00
58243;BME280;50118;53.232;8.252;2022-12-07T00:55:33;101253.72;;;1.96;100.00
58243;BME280;50118;53.232;8.252;2022-12-07T00:57:58;101257.59;;;1.89;100.00
58243;BME280;50118;53.232;8.252;2022-12-07T01:00:23;101251.50;;;1.88;100.00
58243;BME280;50118;53.232;8.252;2022-12-07T01:02:49;101260.75;;;1.78;100.00
58243;BME280;50118;53.232;8.252;2022-12-07T01:05:14;101257.72;;;1.68;100.00
58243;BME280;50118;53.232;8.252;2022-12-07T01:07:39;101251.00;;;1.62;100.00
58243;BME280;50118;53.232;8.252;2022-12-07T01:10:05;101257.41;;;1.57;100.00
58243;BME280;50118;53.232;8.252;2022-12-07T01:12:31;101257.97;;;1.44;100.00
58243;BME280;50118;53.232;8.252;2022-12-07T01:14:56;101261.69;;;1.40;100.00
58243;BME280;50118;53.232;8.252;2022-12-07T01:17:22;101256.59;;;1.37;100.00
58243;BME280;50118;53.232;8.252;2022-12-07T01:19:47;101254.16;;;1.33;100.00
58243;BME280;50118;53.232;8.252;2022-12-07T01:22:12;101251.78;;;1.28;100.00
58243;BME280;50118;53.232;8.252;2022-12-07T01:24:38;101249.94;;;1.30;100.00
58243;BME280;50118;53.232;8.252;2022-12-07T01:27:03;101245.81;;;1.43;100.00
58243;BME280;50118;53.232;8.252;2022-12-07T01:29:28;101250.25;;;1.41;100.00
58243;BME280;50118;53.232;8.252;2022-12-07T01:31:54;101248.78;;;1.36;100.00
58243;BME280;50118;53.232;8.252;2022-12-07T01:34:19;101248.34;;;1.26;100.00
58243;BME280;50118;53.232;8.252;2022-12-07T01:36:45;101249.94;;;1.30;100.00
58243;BME280;50118;53.232;8.252;2022-12-07T01:39:10;101255.59;;;1.21;100.00
58243;BME280;50118;53.232;8.252;2022-12-07T01:41:38;101254.06;;;1.17;100.00
58243;BME280;50118;53.232;8.252;2022-12-07T01:46:45;101253.59;;;1.26;100.00
58243;BME280;50118;53.232;8.252;2022-12-07T01:49:44;101249.59;;;1.19;100.00
58243;BME280;50118;53.232;8.252;2022-12-07T01:52:14;101248.94;;;1.14;100.00
58243;BME280;50118;53.232;8.252;2022-12-07T01:54:44;101249.09;;;1.10;100.00
58243;BME280;50118;53.232;8.252;2022-12-07T01:57:10;101245.28;;;1.18;100.00
58243;BME280;50118;53.232;8.252;2022-12-07T01:59:37;101243.56;;;1.17;100.00
58243;BME280;50118;53.232;8.252;2022-12-07T02:02:07;101240.72;;;1.21;100.00
58243;BME280;50118;53.232;8.252;2022-12-07T02:04:35;101248.34;;;1.26;100.00
58243;BME280;50118;53.232;8.252;2022-12-07T02:07:03;101239.66;;;1.25;100.00
58243;BME280;50118;53.232;8.252;2022-12-07T02:09:30;101240.97;;;1.34;100.00
58243;BME280;50118;53.232;8.252;2022-12-07T02:11:55;101232.88;;;1.39;100.00
58243;BME280;50118;53.232;8.252;2022-12-07T02:14:21;101222.25;;;1.42;100.00
58243;BME280;50118;53.232;8.252;2022-12-07T02:38:39;101218.31;;;1.68;100.00
58243;BME280;50118;53.232;8.252;2022-12-07T02:41:29;101215.22;;;1.60;100.00
58243;BME280;50118;53.232;8.252;2022-12-07T02:44:02;101208.72;;;1.49;100.00
58243;BME280;50118;53.232;8.252;2022-12-07T02:46:33;101201.16;;;1.43;100.00
58243;BME280;50118;53.232;8.252;2022-12-07T02:49:01;101213.81;;;1.35;100.00
58243;BME280;50118;53.232;8.252;2022-12-07T02:51:30;101211.34;;;1.32;100.00
58243;BME280;50118;53.232;8.252;2022-12-07T02:53:55;101218.44;;;1.30;100.00
58243;BME280;50118;53.232;8.252;2022-12-07T03:10:40;101209.22;;;1.21;100.00
58243;BME280;50118;53.232;8.252;2022-12-07T03:18:22;101204.34;;;1.14;100.00
58243;BME280;50118;53.232;8.252;2022-12-07T03:20:51;101214.19;;;1.08;100.00
58243;BME280;50118;53.232;8.252;2022-12-07T03:23:19;101218.59;;;1.08;100.00
58243;BME280;50118;53.232;8.252;2022-12-07T03:25:48;101214.34;;;1.05;100.00
58243;BME280;50118;53.232;8.252;2022-12-07T03:28:18;101221.16;;;1.09;100.00
58243;BME280;50118;53.232;8.252;2022-12-07T03:30:50;101223.44;;;0.98;100.00
58243;BME280;50118;53.232;8.252;2022-12-07T03:33:22;101218.31;;;0.95;100.00
58243;BME280;50118;53.232;8.252;2022-12-07T03:38:42;101211.31;;;0.96;100.00
58243;BME280;50118;53.232;8.252;2022-12-07T03:41:31;101208.00;;;0.92;100.00
58243;BME280;50118;53.232;8.252;2022-12-07T03:43:58;101202.88;;;0.89;100.00
58243;BME280;50118;53.232;8.252;2022-12-07T03:51:51;101201.50;;;0.61;100.00
58243;BME280;50118;53.232;8.252;2022-12-07T03:54:31;101209.81;;;0.52;100.00
58243;BME280;50118;53.232;8.252;2022-12-07T03:56:59;101206.53;;;0.47;100.00
58243;BME280;50118;53.232;8.252;2022-12-07T03:59:26;101207.63;;;0.43;100.00
58243;BME280;50118;53.232;8.252;2022-12-07T04:01:58;101211.91;;;0.44;100.00
58243;BME280;50118;53.232;8.252;2022-12-07T04:04:27;101207.44;;;0.46;100.00
58243;BME280;50118;53.232;8.252;2022-12-07T04:06:52;101204.81;;;0.46;100.00
58243;BME280;50118;53.232;8.252;2022-12-07T04:09:18;101211.78;;;0.47;100.00
58243;BME280;50118;53.232;8.252;2022-12-07T04:11:43;101207.38;;;0.47;100.00
58243;BME280;50118;53.232;8.252;2022-12-07T04:14:09;101214.41;;;0.47;100.00
58243;BME280;50118;53.232;8.252;2022-12-07T04:16:56;101202.84;;;0.51;100.00
58243;BME280;50118;53.232;8.252;2022-12-07T04:19:25;101210.13;;;0.44;100.00
58243;BME280;50118;53.232;8.252;2022-12-07T04:21:50;101207.75;;;0.40;100.00
58243;BME280;50118;53.232;8.252;2022-12-07T04:24:16;101224.50;;;0.35;100.00
58243;BME280;50118;53.232;8.252;2022-12-07T04:26:43;101232.38;;;0.35;100.00
58243;BME280;50118;53.232;8.252;2022-12-07T04:29:09;101225.09;;;0.42;100.00
58243;BME280;50118;53.232;8.252;2022-12-07T04:31:35;101216.19;;;0.46;100.00
58243;BME280;50118;53.232;8.252;2022-12-07T04:34:01;101208.09;;;0.51;100.00
58243;BME280;50118;53.232;8.252;2022-12-07T04:36:27;101205.34;;;0.54;100.00
58243;BME280;50118;53.232;8.252;2022-12-07T04:38:53;101206.53;;;0.47;100.00
58243;BME280;50118;53.232;8.252;2022-12-07T04:41:20;101209.28;;;0.44;100.00
58243;BME280;50118;53.232;8.252;2022-12-07T04:43:55;101199.75;;;0.43;100.00
58243;BME280;50118;53.232;8.252;2022-12-07T04:46:23;101201.72;;;0.38;100.00
58243;BME280;50118;53.232;8.252;2022-12-07T04:48:49;101200.00;;;0.36;100.00
58243;BME280;50118;53.232;8.252;2022-12-07T04:51:19;101197.91;;;0.45;100.00
58243;BME280;50118;53.232;8.252;2022-12-07T04:53:45;101193.38;;;0.48;100.00
58243;BME280;50118;53.232;8.252;2022-12-07T04:56:10;101186.41;;;0.47;100.00
58243;BME280;50118;53.232;8.252;2022-12-07T04:58:35;101179.75;;;0.59;100.00
58243;BME280;50118;53.232;8.252;2022-12-07T05:01:01;101181.47;;;0.60;100.00
58243;BME280;50118;53.232;8.252;2022-12-07T05:03:26;101183.25;;;0.60;100.00
58243;BME280;50118;53.232;8.252;2022-12-07T05:05:52;101179.75;;;0.59;100.00
58243;BME280;50118;53.232;8.252;2022-12-07T05:08:17;101186.09;;;0.55;100.00
58243;BME280;50118;53.232;8.252;2022-12-07T05:10:42;101180.19;;;0.50;100.00
58243;BME280;50118;53.232;8.252;2022-12-07T05:13:08;101179.13;;;0.54;100.00
58243;BME280;50118;53.232;8.252;2022-12-07T05:15:33;101180.78;;;0.57;100.00
58243;BME280;50118;53.232;8.252;2022-12-07T05:17:59;101179.25;;;0.51;100.00
58243;BME280;50118;53.232;8.252;2022-12-07T05:20:24;101181.03;;;0.50;100.00
58243;BME280;50118;53.232;8.252;2022-12-07T05:22:50;101185.31;;;0.53;100.00
58243;BME280;50118;53.232;8.252;2022-12-07T05:25:15;101193.06;;;0.54;100.00
58243;BME280;50118;53.232;8.252;2022-12-07T05:27:40;101188.56;;;0.58;100.00
58243;BME280;50118;53.232;8.252;2022-12-07T05:30:06;101191.97;;;0.60;100.00
58243;BME280;50118;53.232;8.252;2022-12-07T05:32:32;101183.59;;;0.71;100.00
58243;BME280;50118;53.232;8.252;2022-12-07T05:34:57;101181.28;;;0.65;100.00
58243;BME280;50118;53.232;8.252;2022-12-07T05:37:23;101187.38;;;0.65;100.00
58243;BME280;50118;53.232;8.252;2022-12-07T05:39:48;101186.59;;;0.63;100.00
58243;BME280;50118;53.232;8.252;2022-12-07T05:42:13;101184.88;;;0.62;100.00
58243;BME280;50118;53.232;8.252;2022-12-07T05:44:40;101189.97;;;0.65;100.00
58243;BME280;50118;53.232;8.252;2022-12-07T05:47:06;101179.69;;;0.61;100.00
58243;BME280;50118;53.232;8.252;2022-12-07T05:49:31;101184.09;;;0.60;100.00
58243;BME280;50118;53.232;8.252;2022-12-07T05:51:57;101190.25;;;0.59;100.00
58243;BME280;50118;53.232;8.252;2022-12-07T05:54:22;101183.53;;;0.53;100.00
58243;BME280;50118;53.232;8.252;2022-12-07T05:56:48;101192.94;;;0.58;100.00
58243;BME280;50118;53.232;8.252;2022-12-07T05:59:13;101191.66;;;0.66;100.00
58243;BME280;50118;53.232;8.252;2022-12-07T06:02:09;101187.22;;;0.68;100.00
58243;BME280;50118;53.232;8.252;2022-12-07T06:04:43;101196.91;;;0.66;100.00
58243;BME280;50118;53.232;8.252;2022-12-07T06:07:10;101195.78;;;0.72;100.00
58243;BME280;50118;53.232;8.252;2022-12-07T06:09:35;101188.44;;;0.80;100.00
58243;BME280;50118;53.232;8.252;2022-12-07T06:12:01;101184.88;;;0.81;100.00
58243;BME280;50118;53.232;8.252;2022-12-07T06:14:45;101183.59;;;0.90;100.00
58243;BME280;50118;53.232;8.252;2022-12-07T06:17:12;101180.06;;;0.91;100.00
58243;BME280;50118;53.232;8.252;2022-12-07T06:19:38;101190.53;;;0.91;100.00
58243;BME280;50118;53.232;8.252;2022-12-07T06:22:03;101194.88;;;0.92;100.00
58243;BME280;50118;53.232;8.252;2022-12-07T06:24:30;101187.00;;;0.92;100.00
58243;BME280;50118;53.232;8.252;2022-12-07T06:26:56;101189.41;;;0.97;100.00
58243;BME280;50118;53.232;8.252;2022-12-07T06:29:21;101200.91;;;0.94;100.00
58243;BME280;50118;53.232;8.252;2022-12-07T06:31:47;101197.41;;;0.93;100.00
58243;BME280;50118;53.232;8.252;2022-12-07T06:34:15;101204.28;;;0.96;100.00
58243;BME280;50118;53.232;8.252;2022-12-07T06:36:41;101211.88;;;1.02;100.00
58243;BME280;50118;53.232;8.252;2022-12-07T06:39:07;101212.13;;;1.15;100.00
58243;BME280;50118;53.232;8.252;2022-12-07T06:41:37;101217.47;;;1.14;100.00
58243;BME280;50118;53.232;8.252;2022-12-07T06:44:04;101225.53;;;1.09;100.00
58243;BME280;50118;53.232;8.252;2022-12-07T06:46:30;101224.69;;;1.08;100.00
58243;BME280;50118;53.232;8.252;2022-12-07T06:48:56;101217.78;;;1.07;100.00
58243;BME280;50118;53.232;8.252;2022-12-07T06:51:21;101207.28;;;1.07;100.00
58243;BME280;50118;53.232;8.252;2022-12-07T06:53:47;101214.50;;;1.02;100.00
58243;BME280;50118;53.232;8.252;2022-12-07T06:56:12;101204.53;;;1.09;100.00
58243;BME280;50118;53.232;8.252;2022-12-07T06:58:39;101209.09;;;1.05;100.00
58243;BME280;50118;53.232;8.252;2022-12-07T07:01:12;101209.25;;;1.02;100.00
58243;BME280;50118;53.232;8.252;2022-12-07T07:03:38;101203.53;;;0.94;100.00
58243;BME280;50118;53.232;8.252;2022-12-07T07:06:04;101213.44;;;0.87;100.00
58243;BME280;50118;53.232;8.252;2022-12-07T07:08:30;101201.44;;;0.82;100.00
58243;BME280;50118;53.232;8.252;2022-12-07T07:10:56;101208.97;;;0.70;100.00
58243;BME280;50118;53.232;8.252;2022-12-07T07:13:21;101197.34;;;0.57;100.00
58243;BME280;50118;53.232;8.252;2022-12-07T07:15:46;101204.56;;;0.52;100.00
58243;BME280;50118;53.232;8.252;2022-12-07T07:18:12;101198.03;;;0.42;100.00
58243;BME280;50118;53.232;8.252;2022-12-07T07:20:37;101205.25;;;0.36;100.00
58243;BME280;50118;53.232;8.252;2022-12-07T07:23:03;101204.53;;;0.33;100.00
58243;BME280;50118;53.232;8.252;2022-12-07T07:25:29;101196.75;;;0.31;100.00
58243;BME280;50118;53.232;8.252;2022-12-07T07:27:54;101202.81;;;0.32;100.00
58243;BME280;50118;53.232;8.252;2022-12-07T07:30:20;101203.28;;;0.42;100.00
58243;BME280;50118;53.232;8.252;2022-12-07T07:32:46;101212.75;;;0.44;100.00
58243;BME280;50118;53.232;8.252;2022-12-07T07:35:11;101225.66;;;0.49;100.00
58243;BME280;50118;53.232;8.252;2022-12-07T07:37:39;101216.59;;;0.56;100.00
58243;BME280;50118;53.232;8.252;2022-12-07T07:40:05;101219.97;;;0.60;100.00
58243;BME280;50118;53.232;8.252;2022-12-07T07:42:30;101217.88;;;0.66;100.00
58243;BME280;50118;53.232;8.252;2022-12-07T07:44:56;101208.97;;;0.70;100.00
58243;BME280;50118;53.232;8.252;2022-12-07T07:47:21;101207.97;;;0.73;100.00
58243;BME280;50118;53.232;8.252;2022-12-07T07:49:47;101212.38;;;0.72;100.00
58243;BME280;50118;53.232;8.252;2022-12-07T07:52:12;101215.63;;;0.78;100.00
58243;BME280;50118;53.232;8.252;2022-12-07T07:54:37;101224.28;;;0.80;100.00
58243;BME280;50118;53.232;8.252;2022-12-07T07:57:03;101224.91;;;0.85;100.00
58243;BME280;50118;53.232;8.252;2022-12-07T07:59:28;101222.03;;;0.91;100.00
58243;BME280;50118;53.232;8.252;2022-12-07T08:01:54;101225.56;;;0.90;100.00
58243;BME280;50118;53.232;8.252;2022-12-07T08:04:19;101234.06;;;0.95;100.00
58243;BME280;50118;53.232;8.252;2022-12-07T08:06:45;101233.16;;;0.96;100.00
58243;BME280;50118;53.232;8.252;2022-12-07T08:09:10;101227.06;;;0.96;100.00
58243;BME280;50118;53.232;8.252;2022-12-07T08:11:36;101230.09;;;1.05;100.00
58243;BME280;50118;53.232;8.252;2022-12-07T08:14:02;101226.63;;;1.05;100.00
58243;BME280;50118;53.232;8.252;2022-12-07T08:16:27;101232.72;;;1.05;100.00
58243;BME280;50118;53.232;8.252;2022-12-07T08:18:52;101236.66;;;1.14;100.00
58243;BME280;50118;53.232;8.252;2022-12-07T08:21:18;101238.16;;;1.20;100.00
58243;BME280;50118;53.232;8.252;2022-12-07T08:23:43;101246.69;;;1.25;100.00
58243;BME280;50118;53.232;8.252;2022-12-07T08:26:11;101254.56;;;1.25;100.00
58243;BME280;50118;53.232;8.252;2022-12-07T08:28:37;101227.63;;;1.39;100.00
58243;BME280;50118;53.232;8.252;2022-12-07T08:31:14;101227.09;;;1.49;100.00
58243;BME280;50118;53.232;8.252;2022-12-07T08:33:39;101228.41;;;1.41;100.00
58243;BME280;50118;53.232;8.252;2022-12-07T08:36:07;101242.63;;;1.37;100.00
58243;BME280;50118;53.232;8.252;2022-12-07T08:38:37;101243.47;;;1.37;100.00
58243;BME280;50118;53.232;8.252;2022-12-07T08:41:03;101248.78;;;1.36;100.00
58243;BME280;50118;53.232;8.252;2022-12-07T08:43:29;101249.63;;;1.36;100.00
58243;BME280;50118;53.232;8.252;2022-12-07T08:46:25;101246.72;;;1.42;100.00
58243;BME280;50118;53.232;8.252;2022-12-07T08:49:01;101241.41;;;1.44;100.00
58243;BME280;50118;53.232;8.252;2022-12-07T08:51:27;101247.91;;;1.54;100.00
58243;BME280;50118;53.232;8.252;2022-12-07T08:53:53;101239.81;;;1.59;100.00
58243;BME280;50118;53.232;8.252;2022-12-07T08:56:20;101248.75;;;1.55;100.00
58243;BME280;50118;53.232;8.252;2022-12-07T08:58:46;101252.38;;;1.52;100.00
58243;BME280;50118;53.232;8.252;2022-12-07T09:01:12;101238.41;;;1.52;100.00
58243;BME280;50118;53.232;8.252;2022-12-07T09:03:37;101239.03;;;1.57;100.00
58243;BME280;50118;53.232;8.252;2022-12-07T09:06:03;101244.78;;;1.46;100.00
58243;BME280;50118;53.232;8.252;2022-12-07T09:08:42;101234.44;;;1.43;100.00
58243;BME280;50118;53.232;8.252;2022-12-07T09:11:09;101244.53;;;1.33;100.00
58243;BME280;50118;53.232;8.252;2022-12-07T09:13:34;101239.84;;;1.40;100.00
58243;BME280;50118;53.232;8.252;2022-12-07T09:16:00;101240.31;;;1.48;100.00
58243;BME280;50118;53.232;8.252;2022-12-07T09:18:26;101245.69;;;1.64;100.00
58243;BME280;50118;53.232;8.252;2022-12-07T09:20:51;101243.22;;;1.78;100.00
58243;BME280;50118;53.232;8.252;2022-12-07T09:23:17;101240.50;;;1.97;100.00
58243;BME280;50118;53.232;8.252;2022-12-07T09:25:42;101241.59;;;2.11;100.00
58243;BME280;50118;53.232;8.252;2022-12-07T09:28:08;101240.75;;;2.10;100.00
58243;BME280;50118;53.232;8.252;2022-12-07T09:30:34;101242.75;;;2.05;100.00
58243;BME280;50118;53.232;8.252;2022-12-07T09:32:59;101246.31;;;2.04;100.00
58243;BME280;50118;53.232;8.252;2022-12-07T09:35:24;101243.38;;;1.93;100.00
58243;BME280;50118;53.232;8.252;2022-12-07T09:37:50;101229.53;;;2.07;100.00
58243;BME280;50118;53.232;8.252;2022-12-07T09:40:18;101231.41;;;2.04;100.00
58243;BME280;50118;53.232;8.252;2022-12-07T09:42:48;101231.94;;;2.11;100.00
58243;BME280;50118;53.232;8.252;2022-12-07T09:45:18;101233.16;;;2.04;100.00
58243;BME280;50118;53.232;8.252;2022-12-07T09:47:45;101222.56;;;2.05;100.00
58243;BME280;50118;53.232;8.252;2022-12-07T09:50:23;101219.56;;;2.13;100.00
58243;BME280;50118;53.232;8.252;2022-12-07T09:52:49;101214.31;;;2.13;100.00
58243;BME280;50118;53.232;8.252;2022-12-07T09:55:22;101216.00;;;2.14;100.00
58243;BME280;50118;53.232;8.252;2022-12-07T09:57:49;101208.91;;;2.16;100.00
58243;BME280;50118;53.232;8.252;2022-12-07T10:00:18;101212.28;;;2.18;100.00
58243;BME280;50118;53.232;8.252;2022-12-07T10:02:50;101210.13;;;2.27;100.00
58243;BME280;50118;53.232;8.252;2022-12-07T10:05:21;101203.31;;;2.22;100.00
58243;BME280;50118;53.232;8.252;2022-12-07T10:07:48;101201.28;;;2.28;100.00
58243;BME280;50118;53.232;8.252;2022-12-07T10:10:17;101204.22;;;2.39;100.00
58243;BME280;50118;53.232;8.252;2022-12-07T10:12:59;101204.69;;;2.30;100.00
58243;BME280;50118;53.232;8.252;2022-12-07T10:15:47;101199.94;;;2.36;100.00
58243;BME280;50118;53.232;8.252;2022-12-07T10:18:40;101198.44;;;2.48;100.00
58243;BME280;50118;53.232;8.252;2022-12-07T10:21:25;101202.81;;;2.65;100.00
58243;BME280;50118;53.232;8.252;2022-12-07T10:24:04;101207.50;;;2.76;100.00
58243;BME280;50118;53.232;8.252;2022-12-07T10:31:57;101201.88;;;2.82;100.00
58243;BME280;50118;53.232;8.252;2022-12-07T10:34:25;101200.09;;;2.83;100.00
58243;BME280;50118;53.232;8.252;2022-12-07T10:36:52;101194.34;;;2.92;100.00
58243;BME280;50118;53.232;8.252;2022-12-07T10:39:20;101197.97;;;2.89;100.00
58243;BME280;50118;53.232;8.252;2022-12-07T10:42:01;101181.69;;;2.98;100.00
58243;BME280;50118;53.232;8.252;2022-12-07T10:44:31;101177.78;;;3.06;100.00
58243;BME280;50118;53.232;8.252;2022-12-07T11:00:31;101170.31;;;3.14;100.00
58243;BME280;50118;53.232;8.252;2022-12-07T11:05:53;101171.91;;;3.16;100.00
58243;BME280;50118;53.232;8.252;2022-12-07T11:08:38;101161.16;;;3.05;100.00
58243;BME280;50118;53.232;8.252;2022-12-07T11:11:24;101165.06;;;2.98;100.00
58243;BME280;50118;53.232;8.252;2022-12-07T11:13:56;101158.09;;;2.97;100.00
58243;BME280;50118;53.232;8.252;2022-12-07T11:16:55;101156.06;;;2.86;100.00
58243;BME280;50118;53.232;8.252;2022-12-07T11:19:34;101156.16;;;2.85;100.00
58243;BME280;50118;53.232;8.252;2022-12-07T11:30:19;101141.19;;;3.01;100.00
58243;BME280;50118;53.232;8.252;2022-12-07T11:38:17;101125.19;;;3.50;100.00
58243;BME280;50118;53.232;8.252;2022-12-07T11:40:49;101125.06;;;3.68;100.00
58243;BME280;50118;53.232;8.252;2022-12-07T11:43:26;101117.34;;;3.79;100.00
58243;BME280;50118;53.232;8.252;2022-12-07T11:46:03;101117.09;;;3.84;100.00
58243;BME280;50118;53.232;8.252;2022-12-07T11:48:35;101115.78;;;3.77;100.00
58243;BME280;50118;53.232;8.252;2022-12-07T11:51:03;101114.53;;;3.82;100.00
58243;BME280;50118;53.232;8.252;2022-12-07T11:56:06;101111.56;;;3.88;100.00
58243;BME280;50118;53.232;8.252;2022-12-07T11:58:35;101107.38;;;3.84;100.00
58243;BME280;50118;53.232;8.252;2022-12-07T12:03:50;101099.75;;;3.80;100.00
58243;BME280;50118;53.232;8.252;2022-12-07T12:06:16;101106.47;;;3.85;100.00
58243;BME280;50118;53.232;8.252;2022-12-07T12:14:22;101086.78;;;3.91;100.00
58243;BME280;50118;53.232;8.252;2022-12-07T12:22:18;101107.75;;;4.07;100.00
58243;BME280;50118;53.232;8.252;2022-12-07T12:24:49;101098.09;;;4.07;100.00
58243;BME280;50118;53.232;8.252;2022-12-07T12:27:27;101093.47;;;4.11;100.00
58243;BME280;50118;53.232;8.252;2022-12-07T12:29:59;101094.13;;;4.15;100.00
58243;BME280;50118;53.232;8.252;2022-12-07T12:32:42;101100.91;;;4.04;100.00
58243;BME280;50118;53.232;8.252;2022-12-07T12:40:54;101083.00;;;4.24;100.00
58243;BME280;50118;53.232;8.252;2022-12-07T12:43:42;101083.28;;;4.34;100.00
58243;BME280;50118;53.232;8.252;2022-12-07T12:51:53;101093.38;;;3.98;100.00
58243;BME280;50118;53.232;8.252;2022-12-07T12:59:37;101094.31;;;3.83;100.00
58243;BME280;50118;53.232;8.252;2022-12-07T13:02:21;101097.84;;;3.67;100.00
58243;BME280;50118;53.232;8.252;2022-12-07T13:04:58;101086.34;;;3.54;100.00
58243;BME280;50118;53.232;8.252;2022-12-07T13:13:08;101092.16;;;3.30;100.00
58243;BME280;50118;53.232;8.252;2022-12-07T13:28:45;101079.94;;;3.44;100.00
58243;BME280;50118;53.232;8.252;2022-12-07T13:33:38;101081.81;;;3.42;100.00
58243;BME280;50118;53.232;8.252;2022-12-07T13:36:04;101079.28;;;3.10;100.00
58243;BME280;50118;53.232;8.252;2022-12-07T13:38:36;101074.56;;;3.01;100.00
58243;BME280;50118;53.232;8.252;2022-12-07T13:41:15;101078.31;;;2.96;100.00
58243;BME280;50118;53.232;8.252;2022-12-07T13:43:54;101076.94;;;2.89;100.00
58243;BME280;50118;53.232;8.252;2022-12-07T13:46:59;101076.28;;;2.86;100.00
58243;BME280;50118;53.232;8.252;2022-12-07T13:51:52;101073.06;;;2.80;100.00
58243;BME280;50118;53.232;8.252;2022-12-07T13:54:18;101083.75;;;2.77;100.00
58243;BME280;50118;53.232;8.252;2022-12-07T13:56:48;101076.88;;;2.75;100.00
58243;BME280;50118;53.232;8.252;2022-12-07T13:59:21;101070.88;;;2.73;100.00
58243;BME280;50118;53.232;8.252;2022-12-07T14:01:49;101071.97;;;2.69;100.00
58243;BME280;50118;53.232;8.252;2022-12-07T14:04:35;101071.97;;;2.69;100.00
58243;BME280;50118;53.232;8.252;2022-12-07T14:07:18;101069.69;;;2.63;100.00
58243;BME280;50118;53.232;8.252;2022-12-07T14:09:57;101056.78;;;2.58;100.00
58243;BME280;50118;53.232;8.252;2022-12-07T14:12:24;101064.09;;;2.53;100.00
58243;BME280;50118;53.232;8.252;2022-12-07T14:14:50;101059.25;;;2.45;100.00
58243;BME280;50118;53.232;8.252;2022-12-07T14:17:21;101060.69;;;2.35;100.00
58243;BME280;50118;53.232;8.252;2022-12-07T14:19:55;101054.25;;;2.24;100.00
58243;BME280;50118;53.232;8.252;2022-12-07T14:27:39;101060.84;;;2.00;100.00
58243;BME280;50118;53.232;8.252;2022-12-07T14:30:15;101069.97;;;1.93;100.00
58243;BME280;50118;53.232;8.252;2022-12-07T14:32:41;101064.88;;;1.90;100.00
58243;BME280;50118;53.232;8.252;2022-12-07T14:35:11;101061.44;;;2.05;100.00
58243;BME280;50118;53.232;8.252;2022-12-07T14:37:39;101055.50;;;2.01;100.00
58243;BME280;50118;53.232;8.252;2022-12-07T14:40:05;101045.59;;;2.07;100.00
58243;BME280;50118;53.232;8.252;2022-12-07T14:42:31;101047.63;;;2.01;100.00
58243;BME280;50118;53.232;8.252;2022-12-07T14:44:58;101040.41;;;2.05;100.00
58243;BME280;50118;53.232;8.252;2022-12-07T14:47:25;101034.41;;;2.03;100.00
58243;BME280;50118;53.232;8.252;2022-12-07T14:49:51;101033.19;;;1.93;100.00
58243;BME280;50118;53.232;8.252;2022-12-07T14:52:20;101038.63;;;1.90;100.00
58243;BME280;50118;53.232;8.252;2022-12-07T14:54:46;101031.50;;;1.92;100.00
58243;BME280;50118;53.232;8.252;2022-12-07T14:57:11;101031.22;;;1.80;100.00
58243;BME280;50118;53.232;8.252;2022-12-07T14:59:36;101040.94;;;1.78;100.00
58243;BME280;50118;53.232;8.252;2022-12-07T15:02:02;101045.84;;;1.68;100.00
58243;BME280;50118;53.232;8.252;2022-12-07T15:04:27;101039.75;;;1.68;100.00
58243;BME280;50118;53.232;8.252;2022-12-07T15:07:02;101036.66;;;1.60;100.00
58243;BME280;50118;53.232;8.252;2022-12-07T15:09:28;101042.09;;;1.57;100.00
58243;BME280;50118;53.232;8.252;2022-12-07T15:11:53;101053.81;;;1.49;100.00
58243;BME280;50118;53.232;8.252;2022-12-07T15:14:18;101042.56;;;1.47;100.00
58243;BME280;50118;53.232;8.252;2022-12-07T15:16:44;101048.28;;;1.38;100.00
58243;BME280;50118;53.232;8.252;2022-12-07T15:19:13;101049.50;;;1.31;100.00
58243;BME280;50118;53.232;8.252;2022-12-07T15:21:39;101045.06;;;1.33;100.00
58243;BME280;50118;53.232;8.252;2022-12-07T15:24:05;101052.25;;;1.29;100.00
58243;BME280;50118;53.232;8.252;2022-12-07T15:26:30;101053.09;;;1.13;100.00
58243;BME280;50118;53.232;8.252;2022-12-07T15:28:56;101053.25;;;1.09;100.00
58243;BME280;50118;53.232;8.252;2022-12-07T15:31:22;101058.00;;;1.19;100.00